Terminal Aerodrome Forecast
Issued by NWS

Home | Current Version | Previous Version | Text Only | Print | Product List | Glossary On
Versions: 1 2 3 4 5 6 7 8 9 10 11 12
000
FTAK31 PAJN 261100
TAFASI
TAF
PASI 261130Z 2612/2712 12018G28KT P6SM VCSH BKN080 BKN100 BKN120
      WS020/13040KT
     FM261400 12020G30KT P6SM -RA SCT030 BKN040 OVC060 WS020/12045KT
     FM262000 14015G25KT 4SM RA BR SCT020 BKN030 OVC060
     FM270300 15010KT P6SM -SHRA SCT020 OVC050
     FM270800 14008G18KT P6SM -SHRA BKN040 OVC060=

USA.gov is the U.S. government's official web portal to all federal, state and local government web resources and services.